Time;durP1;ratioP1;P1;durP2;ratioP2;P2;SDS_P1;SDS_P2;PMS_P1;PMS_P2;Temp;Humidity;BMP_temperature;BMP_pressure;BME280_temperature;BME280_humidity;BME280_pressure;Samples;Min_cycle;Max_cycle;Signal;HPM_P1;HPM_P2
2022/08/28 00:00:07;;;;;;;1999.90;999.90;;;;;;;;;;5046049;28;20488;-70
2022/08/28 00:02:36;;;;;;;1999.90;999.90;;;;;;;;;;5047130;28;20417;-70
2022/08/28 00:05:04;;;;;;;1999.90;999.90;;;;;;;;;;5046633;28;20397;-70
2022/08/28 00:07:32;;;;;;;1999.90;999.90;;;;;;;;;;5063227;28;20408;-70
2022/08/28 00:10:00;;;;;;;1999.90;999.90;;;;;;;;;;5048559;28;20475;-69
2022/08/28 00:12:28;;;;;;;1999.90;999.90;;;;;;;;;;5046975;28;20404;-70
2022/08/28 00:14:56;;;;;;;1999.90;999.90;;;;;;;;;;5048438;28;20406;-69
2022/08/28 00:17:24;;;;;;;1999.90;999.90;;;;;;;;;;5049268;28;22537;-70
2022/08/28 00:19:53;;;;;;;1999.90;999.90;;;;;;;;;;5045310;28;20418;-69
2022/08/28 00:22:21;;;;;;;1999.90;999.90;;;;;;;;;;5045841;28;21232;-68
2022/08/28 00:24:49;;;;;;;1999.90;999.90;;;;;;;;;;5060848;28;20384;-69
2022/08/28 00:30:07;;;;;;;1999.90;999.90;;;;;;;;;;5046896;28;20400;-69
2022/08/28 00:32:35;;;;;;;1999.90;999.90;;;;;;;;;;5045984;28;20412;-69
2022/08/28 00:35:05;;;;;;;1999.90;999.90;;;;;;;;;;5047387;28;20400;-69
2022/08/28 00:37:34;;;;;;;1999.90;999.90;;;;;;;;;;5061027;28;20933;-69
2022/08/28 00:40:02;;;;;;;1999.90;999.90;;;;;;;;;;5048599;28;20435;-69
2022/08/28 00:42:33;;;;;;;1999.90;999.90;;;;;;;;;;5046383;28;21297;-69
2022/08/28 00:45:00;;;;;;;1999.90;999.90;;;;;;;;;;5047245;28;20404;-69
2022/08/28 00:47:29;;;;;;;1999.90;999.90;;;;;;;;;;5059412;28;20411;-69
2022/08/28 00:49:56;;;;;;;1999.90;999.90;;;;;;;;;;5046703;28;20414;-69
2022/08/28 00:52:25;;;;;;;1999.90;999.90;;;;;;;;;;5047688;28;20423;-68
2022/08/28 00:54:55;;;;;;;1999.90;999.90;;;;;;;;;;5045455;28;20400;-69
2022/08/28 00:57:28;;;;;;;1999.90;999.90;;;;;;;;;;5056992;28;20420;-69
2022/08/28 00:59:56;;;;;;;1999.90;999.90;;;;;;;;;;5045914;28;20936;-69
2022/08/28 01:02:24;;;;;;;1999.90;999.90;;;;;;;;;;5050129;28;20407;-68
2022/08/28 01:04:52;;;;;;;1999.90;999.90;;;;;;;;;;5048499;28;20404;-69
2022/08/28 01:07:22;;;;;;;1999.90;999.90;;;;;;;;;;5042743;28;21703;-69
2022/08/28 01:09:53;;;;;;;1999.90;999.90;;;;;;;;;;5044923;28;21185;-69
2022/08/28 01:12:22;;;;;;;1999.90;999.90;;;;;;;;;;5050001;28;20400;-70
2022/08/28 01:14:51;;;;;;;1999.90;999.90;;;;;;;;;;5044302;28;20413;-69
2022/08/28 01:17:20;;;;;;;1999.90;999.90;;;;;;;;;;5059067;28;20430;-69
2022/08/28 01:19:54;;;;;;;1999.90;999.90;;;;;;;;;;5058509;28;20425;-69
2022/08/28 01:22:23;;;;;;;1999.90;999.90;;;;;;;;;;5041970;28;20419;-68
2022/08/28 01:24:53;;;;;;;1999.90;999.90;;;;;;;;;;5050937;28;20400;-70
2022/08/28 01:27:22;;;;;;;1999.90;999.90;;;;;;;;;;5045046;28;20414;-70
2022/08/28 01:29:51;;;;;;;1999.90;999.90;;;;;;;;;;5048492;28;21025;-70
2022/08/28 01:32:26;;;;;;;1999.90;999.90;;;;;;;;;;5042778;28;20412;-70
2022/08/28 01:34:54;;;;;;;1999.90;999.90;;;;;;;;;;5047134;28;20393;-68
2022/08/28 01:37:22;;;;;;;1999.90;999.90;;;;;;;;;;5045797;28;20449;-69
2022/08/28 01:39:50;;;;;;;1999.90;999.90;;;;;;;;;;5045868;28;20495;-70
2022/08/28 01:42:19;;;;;;;1999.90;999.90;;;;;;;;;;5046756;28;20423;-69
2022/08/28 01:44:49;;;;;;;1999.90;999.90;;;;;;;;;;5044735;28;20406;-69
2022/08/28 01:47:16;;;;;;;1999.90;999.90;;;;;;;;;;5047713;28;20779;-70
2022/08/28 01:49:44;;;;;;;1999.90;999.90;;;;;;;;;;5045697;28;20404;-69
2022/08/28 01:52:12;;;;;;;1999.90;999.90;;;;;;;;;;5048621;28;20976;-69
2022/08/28 01:54:41;;;;;;;1999.90;999.90;;;;;;;;;;5046627;28;20923;-70
2022/08/28 01:57:08;;;;;;;1999.90;999.90;;;;;;;;;;5046989;28;20587;-69
2022/08/28 01:59:37;;;;;;;1999.90;999.90;;;;;;;;;;5045321;28;21637;-68
2022/08/28 02:02:09;;;;;;;1999.90;999.90;;;;;;;;;;5045064;28;20404;-66
2022/08/28 02:04:37;;;;;;;1999.90;999.90;;;;;;;;;;5051785;28;20412;-68
2022/08/28 02:07:05;;;;;;;1999.90;999.90;;;;;;;;;;5045321;28;20376;-68
2022/08/28 02:09:32;;;;;;;1999.90;999.90;;;;;;;;;;5045304;28;20396;-69
2022/08/28 02:12:00;;;;;;;1999.90;999.90;;;;;;;;;;5051562;28;20422;-69
2022/08/28 02:14:29;;;;;;;1999.90;999.90;;;;;;;;;;5064872;28;20403;-69
2022/08/28 02:16:58;;;;;;;1999.90;999.90;;;;;;;;;;5050449;28;20513;-69
2022/08/28 02:19:26;;;;;;;1999.90;999.90;;;;;;;;;;5049102;28;20422;-69
2022/08/28 02:21:53;;;;;;;1999.90;999.90;;;;;;;;;;5050515;28;20463;-69
2022/08/28 02:24:21;;;;;;;1999.90;999.90;;;;;;;;;;5046505;28;20404;-69
2022/08/28 02:26:49;;;;;;;1999.90;999.90;;;;;;;;;;5049447;28;20404;-69
2022/08/28 02:29:17;;;;;;;1999.90;999.90;;;;;;;;;;5050511;28;20783;-69
2022/08/28 02:31:45;;;;;;;1999.90;999.90;;;;;;;;;;5072895;28;20395;-69
2022/08/28 02:34:15;;;;;;;1999.90;999.90;;;;;;;;;;5049649;28;20412;-69
2022/08/28 02:36:42;;;;;;;1999.90;999.90;;;;;;;;;;5052620;28;20435;-69
2022/08/28 02:39:10;;;;;;;1999.90;999.90;;;;;;;;;;5048644;28;20397;-68
2022/08/28 02:41:38;;;;;;;1999.90;999.90;;;;;;;;;;5049024;28;20729;-69
2022/08/28 02:44:06;;;;;;;1999.90;999.90;;;;;;;;;;5047288;28;20443;-69
2022/08/28 02:46:33;;;;;;;1999.90;999.90;;;;;;;;;;5049200;28;20562;-68
2022/08/28 02:49:01;;;;;;;1999.90;999.90;;;;;;;;;;5047025;28;20400;-68
2022/08/28 02:51:32;;;;;;;1999.90;999.90;;;;;;;;;;5066058;28;20483;-68
2022/08/28 02:54:00;;;;;;;1999.90;999.90;;;;;;;;;;5048678;28;20404;-69
2022/08/28 02:56:29;;;;;;;1999.90;999.90;;;;;;;;;;5048139;28;21296;-69
2022/08/28 02:58:57;;;;;;;1999.90;999.90;;;;;;;;;;5049437;28;20398;-68
2022/08/28 03:01:25;;;;;;;1999.90;999.90;;;;;;;;;;5052378;28;20427;-69
2022/08/28 03:03:53;;;;;;;1999.90;999.90;;;;;;;;;;5046757;28;20995;-68
2022/08/28 03:06:21;;;;;;;1999.90;999.90;;;;;;;;;;5051210;28;20416;-68
2022/08/28 03:08:51;;;;;;;1999.90;999.90;;;;;;;;;;5047563;28;20472;-68
2022/08/28 03:11:18;;;;;;;1999.90;999.90;;;;;;;;;;5050391;28;20418;-69
2022/08/28 03:13:46;;;;;;;1999.90;999.90;;;;;;;;;;5049413;28;21121;-69
2022/08/28 03:16:14;;;;;;;1999.90;999.90;;;;;;;;;;5049264;28;20421;-69
2022/08/28 03:18:42;;;;;;;1999.90;999.90;;;;;;;;;;5052501;28;20394;-69
2022/08/28 03:21:10;;;;;;;1999.90;999.90;;;;;;;;;;5052301;28;20431;-69
2022/08/28 03:23:38;;;;;;;1999.90;999.90;;;;;;;;;;5051513;28;21328;-69
2022/08/28 03:26:08;;;;;;;1999.90;999.90;;;;;;;;;;5044475;28;20404;-69
2022/08/28 03:28:38;;;;;;;1999.90;999.90;;;;;;;;;;5048627;28;20806;-68
2022/08/28 03:31:06;;;;;;;1999.90;999.90;;;;;;;;;;5048980;28;21001;-69
2022/08/28 03:33:34;;;;;;;1999.90;999.90;;;;;;;;;;5050897;28;20388;-69
2022/08/28 03:36:01;;;;;;;1999.90;999.90;;;;;;;;;;5059834;28;20415;-69
2022/08/28 03:38:32;;;;;;;1999.90;999.90;;;;;;;;;;5050491;28;20908;-68
2022/08/28 03:41:01;;;;;;;1999.90;999.90;;;;;;;;;;5045433;28;20415;-68
2022/08/28 03:43:30;;;;;;;1999.90;999.90;;;;;;;;;;5046101;28;20399;-68
2022/08/28 03:45:58;;;;;;;1999.90;999.90;;;;;;;;;;5059070;28;20403;-68
2022/08/28 03:48:27;;;;;;;1999.90;999.90;;;;;;;;;;5044298;28;20955;-68
2022/08/28 03:50:55;;;;;;;1999.90;999.90;;;;;;;;;;5044040;28;20425;-68
2022/08/28 03:53:24;;;;;;;1999.90;999.90;;;;;;;;;;5046937;28;21233;-69
2022/08/28 03:55:52;;;;;;;1999.90;999.90;;;;;;;;;;5047101;28;20397;-69
2022/08/28 03:58:20;;;;;;;1999.90;999.90;;;;;;;;;;5051732;28;20470;-69
2022/08/28 04:00:49;;;;;;;1999.90;999.90;;;;;;;;;;5050210;28;20429;-68
2022/08/28 04:03:17;;;;;;;1999.90;999.90;;;;;;;;;;5049945;28;21044;-70
2022/08/28 04:05:46;;;;;;;1999.90;999.90;;;;;;;;;;5046342;28;20883;-70
2022/08/28 04:08:15;;;;;;;1999.90;999.90;;;;;;;;;;5047536;28;20405;-70
2022/08/28 04:10:43;;;;;;;1999.90;999.90;;;;;;;;;;5060156;28;21234;-70
2022/08/28 04:13:11;;;;;;;1999.90;999.90;;;;;;;;;;5046134;28;20403;-69
2022/08/28 04:15:39;;;;;;;1999.90;999.90;;;;;;;;;;5047446;28;20878;-68
2022/08/28 04:18:09;;;;;;;1999.90;999.90;;;;;;;;;;5049425;28;20399;-68
2022/08/28 04:20:37;;;;;;;1999.90;999.90;;;;;;;;;;5047506;28;21131;-68
2022/08/28 04:23:07;;;;;;;1999.90;999.90;;;;;;;;;;5047102;28;20450;-69
2022/08/28 04:25:34;;;;;;;1999.90;999.90;;;;;;;;;;5050552;28;21220;-69
2022/08/28 04:28:03;;;;;;;1999.90;999.90;;;;;;;;;;5048521;28;20403;-69
2022/08/28 04:30:31;;;;;;;1999.90;999.90;;;;;;;;;;5046721;28;20412;-69
2022/08/28 04:32:58;;;;;;;1999.90;999.90;;;;;;;;;;5046856;28;20403;-69
2022/08/28 04:35:28;;;;;;;1999.90;999.90;;;;;;;;;;5060798;28;20900;-69
2022/08/28 04:37:55;;;;;;;1999.90;999.90;;;;;;;;;;5066785;28;20396;-69
2022/08/28 04:40:25;;;;;;;1999.90;999.90;;;;;;;;;;5049731;28;20434;-69
2022/08/28 04:42:53;;;;;;;1999.90;999.90;;;;;;;;;;5048065;28;20883;-69
2022/08/28 04:45:21;;;;;;;1999.90;999.90;;;;;;;;;;5048245;28;20399;-68
2022/08/28 04:47:49;;;;;;;1999.90;999.90;;;;;;;;;;5046159;28;20754;-68
2022/08/28 04:50:16;;;;;;;1999.90;999.90;;;;;;;;;;5048056;28;20404;-68
2022/08/28 04:52:45;;;;;;;1999.90;999.90;;;;;;;;;;5048038;28;20411;-68
2022/08/28 04:55:13;;;;;;;1999.90;999.90;;;;;;;;;;5046866;28;20408;-68
2022/08/28 04:57:44;;;;;;;1999.90;999.90;;;;;;;;;;5048364;28;20427;-69
2022/08/28 05:00:12;;;;;;;1999.90;999.90;;;;;;;;;;5045817;28;20411;-69
2022/08/28 05:02:40;;;;;;;1999.90;999.90;;;;;;;;;;5046617;28;20385;-68
2022/08/28 05:05:08;;;;;;;1999.90;999.90;;;;;;;;;;5052841;28;20387;-69
2022/08/28 05:07:36;;;;;;;1999.90;999.90;;;;;;;;;;5046001;28;20405;-69
2022/08/28 05:10:06;;;;;;;1999.90;999.90;;;;;;;;;;5049199;28;20419;-69
2022/08/28 05:12:34;;;;;;;1999.90;999.90;;;;;;;;;;5046087;28;20403;-69
2022/08/28 05:15:02;;;;;;;1999.90;999.90;;;;;;;;;;5047819;28;20420;-69
2022/08/28 05:17:30;;;;;;;1999.90;999.90;;;;;;;;;;5044780;28;20410;-69
2022/08/28 05:19:58;;;;;;;1999.90;999.90;;;;;;;;;;5045508;28;20431;-69
2022/08/28 05:22:27;;;;;;;1999.90;999.90;;;;;;;;;;5048340;28;20411;-70
2022/08/28 05:24:55;;;;;;;1999.90;999.90;;;;;;;;;;5042143;28;20394;-69
2022/08/28 05:27:24;;;;;;;1999.90;999.90;;;;;;;;;;5045196;28;20398;-70
2022/08/28 05:29:52;;;;;;;1999.90;999.90;;;;;;;;;;5046621;28;20384;-70
2022/08/28 05:32:25;;;;;;;1999.90;999.90;;;;;;;;;;5044916;28;20698;-70
2022/08/28 05:34:54;;;;;;;1999.90;999.90;;;;;;;;;;5044610;28;20878;-70
2022/08/28 05:37:22;;;;;;;1999.90;999.90;;;;;;;;;;5050101;28;20405;-70
2022/08/28 05:39:49;;;;;;;1999.90;999.90;;;;;;;;;;5048608;28;20475;-70
2022/08/28 05:42:17;;;;;;;1999.90;999.90;;;;;;;;;;5049919;28;20435;-70
2022/08/28 05:44:46;;;;;;;1999.90;999.90;;;;;;;;;;5047748;28;20400;-71
2022/08/28 05:47:21;;;;;;;1999.90;999.90;;;;;;;;;;5048994;28;20458;-70
2022/08/28 05:49:48;;;;;;;1999.90;999.90;;;;;;;;;;5051210;28;20404;-70
2022/08/28 05:52:18;;;;;;;1999.90;999.90;;;;;;;;;;5050360;28;20463;-70
2022/08/28 05:54:47;;;;;;;1999.90;999.90;;;;;;;;;;5047077;28;20418;-70
2022/08/28 05:57:15;;;;;;;1999.90;999.90;;;;;;;;;;5067594;28;20433;-70
2022/08/28 05:59:43;;;;;;;1999.90;999.90;;;;;;;;;;5049815;28;20949;-70
2022/08/28 06:02:12;;;;;;;1999.90;999.90;;;;;;;;;;5050647;28;20407;-70
2022/08/28 06:04:40;;;;;;;1999.90;999.90;;;;;;;;;;5046683;28;20403;-70
2022/08/28 06:07:10;;;;;;;1999.90;999.90;;;;;;;;;;5049578;28;20549;-70
2022/08/28 06:09:38;;;;;;;1999.90;999.90;;;;;;;;;;5052709;28;20453;-70
2022/08/28 06:12:06;;;;;;;1999.90;999.90;;;;;;;;;;5046985;28;20401;-70
2022/08/28 06:14:34;;;;;;;1999.90;999.90;;;;;;;;;;5049403;28;20419;-70
2022/08/28 06:17:02;;;;;;;1999.90;999.90;;;;;;;;;;5050800;28;21231;-70
2022/08/28 06:19:32;;;;;;;1999.90;999.90;;;;;;;;;;5049336;28;20889;-70
2022/08/28 06:22:05;;;;;;;1999.90;999.90;;;;;;;;;;5047086;28;21260;-70
2022/08/28 06:24:34;;;;;;;1999.90;999.90;;;;;;;;;;5049569;28;21742;-70
2022/08/28 06:27:02;;;;;;;1999.90;999.90;;;;;;;;;;5048802;28;20959;-70
2022/08/28 06:29:30;;;;;;;1999.90;999.90;;;;;;;;;;5048333;28;20404;-70
2022/08/28 06:31:59;;;;;;;1999.90;999.90;;;;;;;;;;5049024;28;20384;-71
2022/08/28 06:34:27;;;;;;;1999.90;999.90;;;;;;;;;;5049416;28;20979;-70
2022/08/28 06:36:57;;;;;;;1999.90;999.90;;;;;;;;;;5071465;28;20401;-70
2022/08/28 06:39:25;;;;;;;1999.90;999.90;;;;;;;;;;5061919;28;20417;-72
2022/08/28 06:41:53;;;;;;;1999.90;999.90;;;;;;;;;;5052853;28;20902;-72
2022/08/28 06:44:21;;;;;;;1999.90;999.90;;;;;;;;;;5048336;28;20407;-71
2022/08/28 06:46:50;;;;;;;1999.90;999.90;;;;;;;;;;5047744;28;20421;-70
2022/08/28 06:49:18;;;;;;;1999.90;999.90;;;;;;;;;;5036541;28;20471;-72
2022/08/28 06:51:45;;;;;;;1999.90;999.90;;;;;;;;;;5051922;28;20410;-71
2022/08/28 06:54:16;;;;;;;1999.90;999.90;;;;;;;;;;5049783;28;20417;-72
2022/08/28 06:56:49;;;;;;;1999.90;999.90;;;;;;;;;;5046324;28;21613;-72
2022/08/28 06:59:17;;;;;;;1999.90;999.90;;;;;;;;;;5049047;28;20423;-71
2022/08/28 07:01:45;;;;;;;1999.90;999.90;;;;;;;;;;5045678;28;20388;-73
2022/08/28 07:04:13;;;;;;;1999.90;999.90;;;;;;;;;;5047156;28;20397;-73
2022/08/28 07:06:44;;;;;;;1999.90;999.90;;;;;;;;;;5058073;28;20604;-73
2022/08/28 07:09:15;;;;;;;1999.90;999.90;;;;;;;;;;5048611;28;20533;-73
2022/08/28 07:11:44;;;;;;;1999.90;999.90;;;;;;;;;;5046380;28;20449;-73
2022/08/28 07:14:12;;;;;;;1999.90;999.90;;;;;;;;;;5051237;28;20401;-73
2022/08/28 07:16:40;;;;;;;1999.90;999.90;;;;;;;;;;5064139;28;20408;-73
2022/08/28 07:19:10;;;;;;;1999.90;999.90;;;;;;;;;;5049605;28;20408;-74
2022/08/28 07:21:38;;;;;;;1999.90;999.90;;;;;;;;;;5048830;28;20471;-73
2022/08/28 07:24:06;;;;;;;1999.90;999.90;;;;;;;;;;5048057;28;20408;-73
2022/08/28 07:26:35;;;;;;;1999.90;999.90;;;;;;;;;;5051303;28;20915;-73
2022/08/28 07:29:06;;;;;;;1999.90;999.90;;;;;;;;;;5048974;28;20526;-73
2022/08/28 07:31:39;;;;;;;1999.90;999.90;;;;;;;;;;5050357;28;21336;-73
2022/08/28 07:34:08;;;;;;;1999.90;999.90;;;;;;;;;;5045657;28;20499;-73
2022/08/28 07:36:36;;;;;;;1999.90;999.90;;;;;;;;;;5048353;28;20400;-73
2022/08/28 07:39:04;;;;;;;1999.90;999.90;;;;;;;;;;5046460;28;21971;-73
2022/08/28 07:41:34;;;;;;;1999.90;999.90;;;;;;;;;;5048964;28;20381;-73
2022/08/28 07:46:52;;;;;;;1999.90;999.90;;;;;;;;;;5062769;28;20396;-76
2022/08/28 07:49:20;;;;;;;1999.90;999.90;;;;;;;;;;5050035;28;20404;-76
2022/08/28 07:51:48;;;;;;;1999.90;999.90;;;;;;;;;;5048467;28;20422;-75
2022/08/28 07:54:20;;;;;;;1999.90;999.90;;;;;;;;;;5050305;28;20392;-73
2022/08/28 07:56:48;;;;;;;1999.90;999.90;;;;;;;;;;5059090;28;20396;-73
2022/08/28 07:59:19;;;;;;;1999.90;999.90;;;;;;;;;;5046753;28;33817;-73
2022/08/28 08:01:50;;;;;;;1999.90;999.90;;;;;;;;;;5046968;28;21282;-73
2022/08/28 08:04:20;;;;;;;1999.90;999.90;;;;;;;;;;5038251;28;20412;-73
2022/08/28 08:06:48;;;;;;;1999.90;999.90;;;;;;;;;;5049280;28;20392;-73
2022/08/28 08:09:21;;;;;;;1999.90;999.90;;;;;;;;;;5047617;28;20408;-73
2022/08/28 08:11:49;;;;;;;1999.90;999.90;;;;;;;;;;5047716;28;20398;-73
2022/08/28 08:14:19;;;;;;;1999.90;999.90;;;;;;;;;;5049737;28;20488;-74
2022/08/28 08:16:48;;;;;;;1999.90;999.90;;;;;;;;;;5060848;28;20400;-74
2022/08/28 08:19:16;;;;;;;1999.90;999.90;;;;;;;;;;5047493;28;20404;-74
2022/08/28 08:21:45;;;;;;;1999.90;999.90;;;;;;;;;;5046447;28;20897;-73
2022/08/28 08:24:14;;;;;;;1999.90;999.90;;;;;;;;;;5051261;28;20779;-73
2022/08/28 08:26:46;;;;;;;1999.90;999.90;;;;;;;;;;5046130;28;20418;-73
2022/08/28 08:29:28;;;;;;;1999.90;999.90;;;;;;;;;;5033123;28;20429;-74
2022/08/28 08:31:57;;;;;;;1999.90;999.90;;;;;;;;;;5044186;28;20400;-74
2022/08/28 08:34:25;;;;;;;1999.90;999.90;;;;;;;;;;5056912;28;20836;-74
2022/08/28 08:36:56;;;;;;;1999.90;999.90;;;;;;;;;;5053798;28;20395;-73
2022/08/28 08:39:24;;;;;;;1999.90;999.90;;;;;;;;;;5035950;28;20422;-70
2022/08/28 08:41:53;;;;;;;1999.90;999.90;;;;;;;;;;5045315;28;21180;-70
2022/08/28 08:44:23;;;;;;;1999.90;999.90;;;;;;;;;;5046487;28;20427;-75
2022/08/28 08:47:07;;;;;;;1999.90;999.90;;;;;;;;;;5057808;28;20402;-75
2022/08/28 08:49:42;;;;;;;1999.90;999.90;;;;;;;;;;5067179;28;20403;-73
2022/08/28 08:52:23;;;;;;;1999.90;999.90;;;;;;;;;;5044791;28;20403;-74
2022/08/28 08:55:01;;;;;;;1999.90;999.90;;;;;;;;;;5060328;28;20904;-73
2022/08/28 08:57:30;;;;;;;1999.90;999.90;;;;;;;;;;5050844;28;20405;-75
2022/08/28 08:59:58;;;;;;;1999.90;999.90;;;;;;;;;;5047415;28;20422;-74
2022/08/28 09:02:31;;;;;;;1999.90;999.90;;;;;;;;;;5043733;28;20390;-74
2022/08/28 09:05:01;;;;;;;1999.90;999.90;;;;;;;;;;5047708;28;20411;-73
2022/08/28 09:07:36;;;;;;;1999.90;999.90;;;;;;;;;;5045263;28;20395;-73
2022/08/28 09:10:05;;;;;;;1999.90;999.90;;;;;;;;;;5027375;28;20412;-74
2022/08/28 09:12:40;;;;;;;1999.90;999.90;;;;;;;;;;5041732;28;20395;-73
2022/08/28 09:15:10;;;;;;;1999.90;999.90;;;;;;;;;;5045380;28;20394;-74
2022/08/28 09:17:41;;;;;;;1999.90;999.90;;;;;;;;;;5052990;28;20830;-73
2022/08/28 09:20:12;;;;;;;1999.90;999.90;;;;;;;;;;5055598;28;20425;-73
2022/08/28 09:22:42;;;;;;;1999.90;999.90;;;;;;;;;;5056852;28;20392;-76
2022/08/28 09:25:11;;;;;;;1999.90;999.90;;;;;;;;;;5055870;28;20503;-75
2022/08/28 09:27:45;;;;;;;1999.90;999.90;;;;;;;;;;5057005;28;20402;-76
2022/08/28 09:30:13;;;;;;;1999.90;999.90;;;;;;;;;;5052995;28;20418;-75
2022/08/28 09:32:43;;;;;;;1999.90;999.90;;;;;;;;;;5040423;28;21125;-75
2022/08/28 09:35:13;;;;;;;1999.90;999.90;;;;;;;;;;5057751;28;20416;-74
2022/08/28 09:37:42;;;;;;;1999.90;999.90;;;;;;;;;;5071760;28;20511;-74
2022/08/28 09:40:15;;;;;;;1999.90;999.90;;;;;;;;;;5065886;28;20403;-75
2022/08/28 09:45:42;;;;;;;1999.90;999.90;;;;;;;;;;5054005;28;20391;-75
2022/08/28 09:48:19;;;;;;;1999.90;999.90;;;;;;;;;;5058687;28;20409;-75
2022/08/28 09:50:56;;;;;;;1999.90;999.90;;;;;;;;;;5059783;28;20419;-75
2022/08/28 09:53:24;;;;;;;1999.90;999.90;;;;;;;;;;5071186;28;21137;-76
2022/08/28 09:55:59;;;;;;;1999.90;999.90;;;;;;;;;;5050225;28;20439;-75
2022/08/28 09:58:29;;;;;;;1999.90;999.90;;;;;;;;;;5053178;28;21281;-74
2022/08/28 10:01:01;;;;;;;1999.90;999.90;;;;;;;;;;5044934;28;20413;-75
2022/08/28 10:03:33;;;;;;;1999.90;999.90;;;;;;;;;;5050630;28;20883;-74
2022/08/28 10:06:03;;;;;;;1999.90;999.90;;;;;;;;;;5051137;28;20404;-75
2022/08/28 10:08:39;;;;;;;1999.90;999.90;;;;;;;;;;5065566;28;20436;-75
2022/08/28 10:11:16;;;;;;;1999.90;999.90;;;;;;;;;;5069520;28;20426;-78
2022/08/28 10:13:48;;;;;;;1999.90;999.90;;;;;;;;;;5058289;28;20517;-76
2022/08/28 10:16:21;;;;;;;1999.90;999.90;;;;;;;;;;5042424;28;20403;-77
2022/08/28 10:18:55;;;;;;;1999.90;999.90;;;;;;;;;;5059213;28;20398;-77
2022/08/28 10:21:25;;;;;;;1999.90;999.90;;;;;;;;;;5076331;28;20474;-77
2022/08/28 10:24:04;;;;;;;1999.90;999.90;;;;;;;;;;5061659;28;20781;-76
2022/08/28 10:26:35;;;;;;;1999.90;999.90;;;;;;;;;;5056375;28;20399;-78
2022/08/28 10:29:11;;;;;;;1999.90;999.90;;;;;;;;;;5058852;28;20402;-77
2022/08/28 10:31:43;;;;;;;1999.90;999.90;;;;;;;;;;5056944;28;21627;-77
2022/08/28 10:34:26;;;;;;;1999.90;999.90;;;;;;;;;;5056424;28;20458;-77
2022/08/28 10:36:57;;;;;;;1999.90;999.90;;;;;;;;;;5057573;28;20458;-77
2022/08/28 10:39:29;;;;;;;1999.90;999.90;;;;;;;;;;5054189;28;20467;-77
2022/08/28 10:41:58;;;;;;;1999.90;999.90;;;;;;;;;;5055909;28;20447;-77
2022/08/28 10:44:31;;;;;;;1999.90;999.90;;;;;;;;;;5054547;28;21245;-77
2022/08/28 10:47:00;;;;;;;1999.90;999.90;;;;;;;;;;5054208;28;20635;-76
2022/08/28 10:49:31;;;;;;;1999.90;999.90;;;;;;;;;;5051490;28;20435;-78
2022/08/28 10:52:02;;;;;;;1999.90;999.90;;;;;;;;;;5041026;28;20939;-76
2022/08/28 10:54:34;;;;;;;1999.90;999.90;;;;;;;;;;5061231;28;20381;-77
2022/08/28 10:57:05;;;;;;;1999.90;999.90;;;;;;;;;;5054280;28;21249;-78
2022/08/28 10:59:34;;;;;;;1999.90;999.90;;;;;;;;;;5057334;28;20480;-77
2022/08/28 11:02:12;;;;;;;1999.90;999.90;;;;;;;;;;5059282;28;20483;-77
2022/08/28 11:04:41;;;;;;;1999.90;999.90;;;;;;;;;;5055576;28;20436;-77
2022/08/28 11:07:11;;;;;;;1999.90;999.90;;;;;;;;;;5058338;28;20461;-77
2022/08/28 11:09:40;;;;;;;1999.90;999.90;;;;;;;;;;5059968;28;20415;-78
2022/08/28 11:12:28;;;;;;;1999.90;999.90;;;;;;;;;;5056393;28;20404;-78
2022/08/28 11:14:55;;;;;;;1999.90;999.90;;;;;;;;;;5058817;28;20420;-76
2022/08/28 11:17:38;;;;;;;1999.90;999.90;;;;;;;;;;5062352;28;20396;-76
2022/08/28 11:20:14;;;;;;;1999.90;999.90;;;;;;;;;;5053582;28;20391;-76
2022/08/28 11:22:44;;;;;;;1999.90;999.90;;;;;;;;;;5062227;28;20635;-76
2022/08/28 11:25:14;;;;;;;1999.90;999.90;;;;;;;;;;5053611;28;20392;-76
2022/08/28 11:27:58;;;;;;;1999.90;999.90;;;;;;;;;;5055613;28;20436;-76
2022/08/28 11:30:28;;;;;;;1999.90;999.90;;;;;;;;;;5055349;28;20398;-76
2022/08/28 11:32:57;;;;;;;1999.90;999.90;;;;;;;;;;5052586;28;20431;-77
2022/08/28 11:35:41;;;;;;;1999.90;999.90;;;;;;;;;;5056773;28;20402;-77
2022/08/28 11:38:09;;;;;;;1999.90;999.90;;;;;;;;;;5051912;28;20434;-76
2022/08/28 11:40:51;;;;;;;1999.90;999.90;;;;;;;;;;5057088;28;20762;-76
2022/08/28 11:43:33;;;;;;;1999.90;999.90;;;;;;;;;;5056513;28;20420;-76
2022/08/28 11:46:11;;;;;;;1999.90;999.90;;;;;;;;;;5062834;28;20459;-76
2022/08/28 11:48:48;;;;;;;1999.90;999.90;;;;;;;;;;5060851;28;20750;-76
2022/08/28 11:51:37;;;;;;;1999.90;999.90;;;;;;;;;;5061883;28;20395;-77
2022/08/28 11:54:11;;;;;;;1999.90;999.90;;;;;;;;;;5045496;28;20434;-77
2022/08/28 11:56:53;;;;;;;1999.90;999.90;;;;;;;;;;5062788;28;20383;-76
2022/08/28 11:59:36;;;;;;;1999.90;999.90;;;;;;;;;;5059153;28;20439;-76
2022/08/28 12:02:22;;;;;;;1999.90;999.90;;;;;;;;;;5053324;28;20401;-76
2022/08/28 12:04:50;;;;;;;1999.90;999.90;;;;;;;;;;5058924;28;20417;-77
2022/08/28 12:07:20;;;;;;;1999.90;999.90;;;;;;;;;;5058793;28;21088;-76
2022/08/28 12:09:51;;;;;;;1999.90;999.90;;;;;;;;;;5061438;28;20877;-77
2022/08/28 12:12:38;;;;;;;1999.90;999.90;;;;;;;;;;5061332;28;20779;-76
2022/08/28 12:15:09;;;;;;;1999.90;999.90;;;;;;;;;;5060269;28;20420;-78
2022/08/28 12:17:55;;;;;;;1999.90;999.90;;;;;;;;;;5049947;28;20402;-78
2022/08/28 12:20:38;;;;;;;1999.90;999.90;;;;;;;;;;5056761;28;20396;-78
2022/08/28 12:23:20;;;;;;;1999.90;999.90;;;;;;;;;;5053890;28;20892;-76
2022/08/28 12:25:50;;;;;;;1999.90;999.90;;;;;;;;;;5058647;28;20395;-76
2022/08/28 12:28:20;;;;;;;1999.90;999.90;;;;;;;;;;5062267;28;20401;-77
2022/08/28 12:30:52;;;;;;;1999.90;999.90;;;;;;;;;;5060355;28;20399;-77
2022/08/28 12:33:24;;;;;;;1999.90;999.90;;;;;;;;;;5062719;28;20895;-77
2022/08/28 12:35:52;;;;;;;1999.90;999.90;;;;;;;;;;5064276;28;20403;-76
2022/08/28 12:38:20;;;;;;;1999.90;999.90;;;;;;;;;;5056964;28;20395;-78
2022/08/28 12:40:52;;;;;;;1999.90;999.90;;;;;;;;;;5061521;28;20469;-78
2022/08/28 12:43:27;;;;;;;1999.90;999.90;;;;;;;;;;5081427;28;20456;-78
2022/08/28 12:45:56;;;;;;;1999.90;999.90;;;;;;;;;;5063920;28;20410;-78
2022/08/28 12:48:25;;;;;;;1999.90;999.90;;;;;;;;;;5058454;28;20896;-78
2022/08/28 12:51:01;;;;;;;1999.90;999.90;;;;;;;;;;5061889;28;20391;-77
2022/08/28 12:53:37;;;;;;;1999.90;999.90;;;;;;;;;;5058993;28;20413;-77
2022/08/28 12:56:07;;;;;;;1999.90;999.90;;;;;;;;;;5061490;28;20988;-79
2022/08/28 12:58:36;;;;;;;1999.90;999.90;;;;;;;;;;5059301;28;21152;-77
2022/08/28 13:01:05;;;;;;;1999.90;999.90;;;;;;;;;;5065091;28;20814;-77
2022/08/28 13:03:33;;;;;;;1999.90;999.90;;;;;;;;;;5077674;28;20432;-77
2022/08/28 13:06:03;;;;;;;1999.90;999.90;;;;;;;;;;5061306;28;20402;-77
2022/08/28 13:08:32;;;;;;;1999.90;999.90;;;;;;;;;;5056908;28;20399;-77
2022/08/28 13:11:00;;;;;;;1999.90;999.90;;;;;;;;;;5061415;28;20398;-77
2022/08/28 13:13:32;;;;;;;1999.90;999.90;;;;;;;;;;5058955;28;20407;-78
2022/08/28 13:16:01;;;;;;;1999.90;999.90;;;;;;;;;;5059308;28;20861;-78
2022/08/28 13:18:47;;;;;;;1999.90;999.90;;;;;;;;;;5057246;28;20401;-77
2022/08/28 13:21:22;;;;;;;1999.90;999.90;;;;;;;;;;5061613;28;20406;-77
2022/08/28 13:24:21;;;;;;;1999.90;999.90;;;;;;;;;;5060466;28;20834;-77
2022/08/28 13:26:49;;;;;;;1999.90;999.90;;;;;;;;;;5061639;28;20486;-77
2022/08/28 13:29:22;;;;;;;1999.90;999.90;;;;;;;;;;5065262;28;20392;-76
2022/08/28 13:31:55;;;;;;;1999.90;999.90;;;;;;;;;;5064599;28;20401;-77
2022/08/28 13:34:24;;;;;;;1999.90;999.90;;;;;;;;;;5060106;28;20399;-77
2022/08/28 13:36:53;;;;;;;1999.90;999.90;;;;;;;;;;5052194;28;20417;-78
2022/08/28 13:39:22;;;;;;;1999.90;999.90;;;;;;;;;;5055365;28;20407;-77
2022/08/28 13:41:50;;;;;;;1999.90;999.90;;;;;;;;;;5065378;28;21128;-79
2022/08/28 13:44:25;;;;;;;1999.90;999.90;;;;;;;;;;5051285;28;20422;-77
2022/08/28 13:46:52;;;;;;;1999.90;999.90;;;;;;;;;;5053439;28;20417;-78
2022/08/28 13:49:21;;;;;;;1999.90;999.90;;;;;;;;;;5052104;28;20403;-77
2022/08/28 13:51:50;;;;;;;1999.90;999.90;;;;;;;;;;5054763;28;20413;-79
2022/08/28 13:54:19;;;;;;;1999.90;999.90;;;;;;;;;;5071475;28;20501;-78
2022/08/28 13:56:46;;;;;;;1999.90;999.90;;;;;;;;;;5064839;28;20406;-78
2022/08/28 13:59:14;;;;;;;1999.90;999.90;;;;;;;;;;5069258;28;20395;-80
2022/08/28 14:04:29;;;;;;;1999.90;999.90;;;;;;;;;;5059442;28;20576;-78
2022/08/28 14:06:57;;;;;;;1999.90;999.90;;;;;;;;;;5064132;28;20415;-78
2022/08/28 14:09:25;;;;;;;1999.90;999.90;;;;;;;;;;5064289;28;20413;-79